Time;durP1;ratioP1;P1;durP2;ratioP2;P2;SDS_P1;SDS_P2;PMS_P1;PMS_P2;Temp;Humidity;BMP_temperature;BMP_pressure;BME280_temperature;BME280_humidity;BME280_pressure;Samples;Min_cycle;Max_cycle;Signal;HPM_P1;HPM_P2
2022/04/26 03:36:18;;;;;;;;;;;;;;;;;;5095582;28;19970;-76
2022/04/26 03:38:47;;;;;;;;;;;;;;;;;;5095670;28;19916;-76
2022/04/26 03:41:13;;;;;;;;;;;;;;;;;;5098023;28;20010;-76
2022/04/26 03:43:39;;;;;;;;;;;;;;;;;;5080125;28;19963;-76
2022/04/26 03:46:04;;;;;;;;;;;;;;;;;;5096057;28;19924;-76
2022/04/26 03:48:29;;;;;;;;;;;;;;;;;;5096907;28;19923;-76
2022/04/26 03:50:54;;;;;;;;;;;;;;;;;;5096214;28;19972;-76
2022/04/26 03:53:20;;;;;;;;;;;;;;;;;;5096784;28;19966;-76
2022/04/26 03:55:45;;;;;;;;;;;;;;;;;;5096490;28;19959;-76
2022/04/26 03:58:11;;;;;;;;;;;;;;;;;;5096861;28;19927;-76
2022/04/26 04:00:36;;;;;;;;;;;;;;;;;;5097181;28;19924;-76
2022/04/26 04:03:01;;;;;;;;;;;;;;;;;;5094699;28;19916;-76
2022/04/26 04:05:28;;;;;;;;;;;;;;;;;;5092104;28;19927;-76
2022/04/26 04:07:53;;;;;;;;;;;;;;;;;;5089721;28;19912;-76
2022/04/26 04:10:18;;;;;;;;;;;;;;;;;;5094333;28;19974;-76
2022/04/26 04:12:44;;;;;;;;;;;;;;;;;;5097140;28;19946;-76
2022/04/26 04:15:09;;;;;;;;;;;;;;;;;;5097547;28;19960;-76
2022/04/26 04:17:35;;;;;;;;;;;;;;;;;;5096967;28;20273;-76
2022/04/26 04:20:00;;;;;;;;;;;;;;;;;;5095439;28;19916;-76
2022/04/26 04:22:25;;;;;;;;;;;;;;;;;;5097121;28;19970;-76
2022/04/26 04:24:51;;;;;;;;;;;;;;;;;;5093981;28;19927;-76
2022/04/26 04:27:16;;;;;;;;;;;;;;;;;;5097772;28;19923;-76
2022/04/26 04:29:42;;;;;;;;;;;;;;;;;;5097196;28;20374;-76
2022/04/26 04:32:07;;;;;;;;;;;;;;;;;;5096079;28;20314;-76
2022/04/26 04:34:33;;;;;;;;;;;;;;;;;;5096896;28;20362;-76
2022/04/26 04:36:58;;;;;;;;;;;;;;;;;;5097142;28;19920;-76
2022/04/26 04:39:24;;;;;;;;;;;;;;;;;;5096879;28;19977;-76
2022/04/26 04:41:51;;;;;;;;;;;;;;;;;;5096033;28;20566;-76
2022/04/26 04:44:17;;;;;;;;;;;;;;;;;;5093555;28;19951;-76
2022/04/26 04:46:42;;;;;;;;;;;;;;;;;;5093714;28;19920;-76
2022/04/26 04:49:08;;;;;;;;;;;;;;;;;;5094579;28;19942;-76
2022/04/26 04:51:33;;;;;;;;;;;;;;;;;;5094976;28;19916;-76
2022/04/26 04:53:58;;;;;;;;;;;;;;;;;;5095442;28;20018;-76
2022/04/26 04:56:26;;;;;;;;;;;;;;;;;;5095657;28;20002;-76
2022/04/26 04:58:51;;;;;;;;;;;;;;;;;;5094949;28;19941;-76
2022/04/26 05:01:17;;;;;;;;;;;;;;;;;;5091555;28;19916;-76
2022/04/26 05:03:42;;;;;;;;;;;;;;;;;;5092613;28;19923;-76
2022/04/26 05:06:07;;;;;;;;;;;;;;;;;;5093634;28;19965;-76
2022/04/26 05:08:33;;;;;;;;;;;;;;;;;;5095226;28;19923;-76
2022/04/26 05:10:59;;;;;;;;;;;;;;;;;;5094496;28;19983;-76
2022/04/26 05:13:24;;;;;;;;;;;;;;;;;;5094119;28;19916;-76
2022/04/26 05:15:49;;;;;;;;;;;;;;;;;;5089683;28;19922;-76
2022/04/26 05:18:14;;;;;;;;;;;;;;;;;;5075481;28;19939;-76
2022/04/26 05:20:40;;;;;;;;;;;;;;;;;;5078648;28;20381;-76
2022/04/26 05:25:51;;;;;;;;;;;;;;;;;;5094366;28;19920;-76
2022/04/26 05:28:17;;;;;;;;;;;;;;;;;;5094560;28;19968;-75
2022/04/26 05:30:42;;;;;;;;;;;;;;;;;;5096121;28;19938;-76
2022/04/26 05:33:07;;;;;;;;;;;;;;;;;;5096300;28;19920;-76
2022/04/26 05:35:33;;;;;;;;;;;;;;;;;;5094529;28;19923;-76
2022/04/26 05:37:59;;;;;;;;;;;;;;;;;;5094679;28;20006;-76
2022/04/26 05:40:24;;;;;;;;;;;;;;;;;;5094117;28;19916;-76
2022/04/26 05:42:49;;;;;;;;;;;;;;;;;;5095524;28;20294;-76
2022/04/26 05:45:15;;;;;;;;;;;;;;;;;;5096113;28;19920;-76
2022/04/26 05:47:41;;;;;;;;;;;;;;;;;;5096090;28;19922;-76
2022/04/26 05:50:07;;;;;;;;;;;;;;;;;;5094163;28;20005;-76
2022/04/26 05:52:32;;;;;;;;;;;;;;;;;;5095407;28;20356;-76
2022/04/26 05:54:58;;;;;;;;;;;;;;;;;;5095401;28;19916;-76
2022/04/26 05:57:23;;;;;;;;;;;;;;;;;;5093443;28;19967;-76
2022/04/26 05:59:49;;;;;;;;;;;;;;;;;;5094657;28;19919;-76
2022/04/26 06:02:14;;;;;;;;;;;;;;;;;;5087582;28;19920;-77
2022/04/26 06:04:40;;;;;;;;;;;;;;;;;;5085595;28;20305;-76
2022/04/26 06:07:05;;;;;;;;;;;;;;;;;;5085421;28;20298;-76
2022/04/26 06:09:31;;;;;;;;;;;;;;;;;;5072192;28;20362;-77
2022/04/26 06:11:57;;;;;;;;;;;;;;;;;;5073772;28;19923;-76
2022/04/26 06:14:23;;;;;;;;;;;;;;;;;;5089015;28;19916;-77
2022/04/26 06:16:48;;;;;;;;;;;;;;;;;;5093223;28;19927;-76
2022/04/26 06:19:14;;;;;;;;;;;;;;;;;;5092080;28;19930;-76
2022/04/26 06:21:39;;;;;;;;;;;;;;;;;;5091737;28;19916;-75
2022/04/26 06:24:05;;;;;;;;;;;;;;;;;;5093903;28;19997;-75
2022/04/26 06:26:30;;;;;;;;;;;;;;;;;;5092088;28;19920;-76
2022/04/26 06:28:56;;;;;;;;;;;;;;;;;;5094050;28;19923;-76
2022/04/26 06:31:21;;;;;;;;;;;;;;;;;;5092869;28;20402;-77
2022/04/26 06:33:46;;;;;;;;;;;;;;;;;;5093965;28;19916;-80
2022/04/26 06:36:12;;;;;;;;;;;;;;;;;;5095777;28;19927;-79
2022/04/26 06:38:37;;;;;;;;;;;;;;;;;;5098137;28;19938;-79
2022/04/26 06:41:03;;;;;;;;;;;;;;;;;;5102398;28;20378;-79
2022/04/26 06:43:32;;;;;;;;;;;;;;;;;;5104202;28;20177;-80
2022/04/26 06:45:57;;;;;;;;;;;;;;;;;;5104915;28;20012;-79
2022/04/26 06:48:23;;;;;;;;;;;;;;;;;;5102929;28;19916;-78
2022/04/26 06:50:49;;;;;;;;;;;;;;;;;;5102475;28;19916;-78
2022/04/26 06:53:14;;;;;;;;;;;;;;;;;;5096876;28;19923;-79
2022/04/26 06:55:40;;;;;;;;;;;;;;;;;;5095221;28;20016;-76
2022/04/26 06:58:06;;;;;;;;;;;;;;;;;;5091679;28;19927;-76
2022/04/26 07:00:31;;;;;;;;;;;;;;;;;;5093519;28;19916;-75
2022/04/26 07:02:57;;;;;;;;;;;;;;;;;;5092284;28;20025;-76
2022/04/26 07:05:22;;;;;;;;;;;;;;;;;;5090873;28;19920;-77
2022/04/26 07:07:52;;;;;;;;;;;;;;;;;;5092489;28;20370;-78
2022/04/26 07:10:18;;;;;;;;;;;;;;;;;;5096664;28;19971;-77
2022/04/26 07:12:43;;;;;;;;;;;;;;;;;;5094802;28;20012;-81
2022/04/26 07:15:08;;;;;;;;;;;;;;;;;;5098783;28;19927;-79
2022/04/26 07:17:37;;;;;;;;;;;;;;;;;;5094366;28;20006;-79
2022/04/26 07:20:03;;;;;;;;;;;;;;;;;;5094854;28;20021;-77
2022/04/26 07:22:29;;;;;;;;;;;;;;;;;;5097119;28;19919;-79
2022/04/26 07:24:55;;;;;;;;;;;;;;;;;;5095992;28;19990;-78
2022/04/26 07:27:22;;;;;;;;;;;;;;;;;;5097262;28;20363;-79
2022/04/26 07:29:48;;;;;;;;;;;;;;;;;;5096784;28;19916;-78
2022/04/26 07:32:13;;;;;;;;;;;;;;;;;;5096485;28;19927;-79
2022/04/26 07:34:39;;;;;;;;;;;;;;;;;;5094934;28;19916;-83
2022/04/26 07:37:05;;;;;;;;;;;;;;;;;;5092246;28;19922;-79
2022/04/26 07:39:30;;;;;;;;;;;;;;;;;;5083618;28;19916;-79
2022/04/26 07:41:56;;;;;;;;;;;;;;;;;;5095878;28;19967;-78
2022/04/26 07:44:22;;;;;;;;;;;;;;;;;;5091714;28;20420;-78
2022/04/26 07:46:48;;;;;;;;;;;;;;;;;;5091612;28;20313;-78
2022/04/26 07:49:14;;;;;;;;;;;;;;;;;;5094841;28;19974;-79
2022/04/26 07:51:40;;;;;;;;;;;;;;;;;;5097073;28;20022;-78
2022/04/26 07:54:06;;;;;;;;;;;;;;;;;;5096813;28;19943;-78
2022/04/26 07:56:32;;;;;;;;;;;;;;;;;;5097975;28;19978;-79
2022/04/26 07:58:59;;;;;;;;;;;;;;;;;;5098812;28;19927;-78
2022/04/26 08:01:25;;;;;;;;;;;;;;;;;;5097422;28;19916;-78
2022/04/26 08:03:51;;;;;;;;;;;;;;;;;;5097906;28;19922;-80
2022/04/26 08:06:16;;;;;;;;;;;;;;;;;;5098477;28;20023;-79
2022/04/26 08:08:41;;;;;;;;;;;;;;;;;;5096466;28;19916;-77
2022/04/26 08:11:11;;;;;;;;;;;;;;;;;;5090738;28;20444;-77
2022/04/26 08:13:37;;;;;;;;;;;;;;;;;;5085042;28;19922;-77
2022/04/26 08:16:02;;;;;;;;;;;;;;;;;;5096721;28;19916;-77
2022/04/26 08:18:27;;;;;;;;;;;;;;;;;;5096452;28;19916;-77
2022/04/26 08:20:53;;;;;;;;;;;;;;;;;;5097859;28;19916;-79
2022/04/26 08:23:18;;;;;;;;;;;;;;;;;;5096113;28;20322;-78
2022/04/26 08:28:28;;;;;;;;;;;;;;;;;;5093854;28;20327;-78
2022/04/26 08:30:54;;;;;;;;;;;;;;;;;;5094384;28;20381;-78
2022/04/26 08:33:19;;;;;;;;;;;;;;;;;;5095904;28;19949;-78
2022/04/26 08:35:44;;;;;;;;;;;;;;;;;;5096799;28;19916;-79
2022/04/26 08:38:10;;;;;;;;;;;;;;;;;;5095925;28;19916;-76
2022/04/26 08:40:41;;;;;;;;;;;;;;;;;;5094761;28;19948;-76
2022/04/26 08:43:06;;;;;;;;;;;;;;;;;;5095612;28;20006;-76
2022/04/26 08:45:32;;;;;;;;;;;;;;;;;;5093861;28;20023;-76
2022/04/26 08:53:26;;;;;;;;;;;;;;;;;;5094620;28;19965;-76
2022/04/26 08:55:52;;;;;;;;;;;;;;;;;;5093693;28;20026;-75
2022/04/26 08:58:18;;;;;;;;;;;;;;;;;;5093385;28;19927;-75
2022/04/26 09:01:05;;;;;;;;;;;;;;;;;;5093383;28;19916;-75
2022/04/26 09:03:31;;;;;;;;;;;;;;;;;;5094201;28;20301;-75
2022/04/26 09:06:04;;;;;;;;;;;;;;;;;;5092555;28;19920;-75
2022/04/26 09:08:29;;;;;;;;;;;;;;;;;;5094794;28;20300;-75
2022/04/26 09:10:55;;;;;;;;;;;;;;;;;;5093799;28;19927;-76
2022/04/26 09:13:23;;;;;;;;;;;;;;;;;;5094135;28;20384;-75
2022/04/26 09:15:50;;;;;;;;;;;;;;;;;;5092993;28;19923;-76
2022/04/26 09:18:21;;;;;;;;;;;;;;;;;;5088142;28;19917;-74
2022/04/26 09:20:54;;;;;;;;;;;;;;;;;;5075570;28;19916;-77
2022/04/26 09:23:27;;;;;;;;;;;;;;;;;;5091951;28;19920;-77
2022/04/26 09:26:13;;;;;;;;;;;;;;;;;;5093236;28;20313;-76
2022/04/26 09:28:43;;;;;;;;;;;;;;;;;;5092815;28;19916;-76
2022/04/26 09:31:18;;;;;;;;;;;;;;;;;;5089158;28;19969;-75
2022/04/26 09:33:47;;;;;;;;;;;;;;;;;;5080453;28;19917;-76
2022/04/26 09:36:13;;;;;;;;;;;;;;;;;;5092409;28;19916;-76
2022/04/26 09:38:40;;;;;;;;;;;;;;;;;;5093895;28;20377;-77
2022/04/26 09:41:09;;;;;;;;;;;;;;;;;;5071743;28;19920;-77
2022/04/26 09:43:35;;;;;;;;;;;;;;;;;;5087735;28;20283;-76
2022/04/26 09:46:00;;;;;;;;;;;;;;;;;;5094061;28;19927;-79
2022/04/26 09:48:26;;;;;;;;;;;;;;;;;;5094195;28;21435;-79
2022/04/26 09:50:52;;;;;;;;;;;;;;;;;;5096327;28;19916;-79
2022/04/26 09:53:17;;;;;;;;;;;;;;;;;;5092714;28;19930;-81
2022/04/26 09:55:43;;;;;;;;;;;;;;;;;;5092614;28;19947;-77
2022/04/26 09:58:09;;;;;;;;;;;;;;;;;;5093033;28;19927;-76
2022/04/26 10:00:35;;;;;;;;;;;;;;;;;;5091215;28;19916;-77
2022/04/26 10:03:05;;;;;;;;;;;;;;;;;;5093170;28;20467;-78
2022/04/26 10:05:31;;;;;;;;;;;;;;;;;;5092713;28;21900;-77
2022/04/26 10:07:57;;;;;;;;;;;;;;;;;;5094386;28;19960;-76
2022/04/26 10:10:23;;;;;;;;;;;;;;;;;;5093034;28;19916;-76
2022/04/26 10:15:34;;;;;;;;;;;;;;;;;;5092493;28;19916;-77
2022/04/26 10:17:59;;;;;;;;;;;;;;;;;;5093460;28;19920;-77
2022/04/26 10:20:40;;;;;;;;;;;;;;;;;;5091975;28;20595;-76
2022/04/26 10:23:05;;;;;;;;;;;;;;;;;;5093067;28;19916;-76
2022/04/26 10:25:31;;;;;;;;;;;;;;;;;;5093753;28;19920;-76
2022/04/26 10:28:15;;;;;;;;;;;;;;;;;;5091128;28;20374;-76
2022/04/26 10:30:54;;;;;;;;;;;;;;;;;;5091910;28;19916;-76
2022/04/26 10:33:33;;;;;;;;;;;;;;;;;;5092678;28;20456;-77
2022/04/26 10:36:17;;;;;;;;;;;;;;;;;;5092768;28;19969;-76
2022/04/26 10:39:03;;;;;;;;;;;;;;;;;;5090558;28;20026;-76
2022/04/26 10:41:33;;;;;;;;;;;;;;;;;;5093531;28;19923;-76
2022/04/26 10:44:15;;;;;;;;;;;;;;;;;;5087908;28;19923;-77
2022/04/26 10:46:41;;;;;;;;;;;;;;;;;;5072717;28;19921;-76
2022/04/26 10:49:23;;;;;;;;;;;;;;;;;;5084665;28;19958;-76
2022/04/26 10:51:51;;;;;;;;;;;;;;;;;;5092027;28;19923;-76
2022/04/26 10:54:37;;;;;;;;;;;;;;;;;;5088034;28;19934;-77
2022/04/26 10:57:02;;;;;;;;;;;;;;;;;;5091662;28;19928;-76
2022/04/26 10:59:27;;;;;;;;;;;;;;;;;;5092371;28;20018;-76
2022/04/26 11:01:54;;;;;;;;;;;;;;;;;;5091191;28;20002;-77
2022/04/26 11:04:20;;;;;;;;;;;;;;;;;;5090802;28;19920;-76
2022/04/26 11:06:45;;;;;;;;;;;;;;;;;;5091273;28;19969;-77
2022/04/26 11:09:12;;;;;;;;;;;;;;;;;;5091399;28;19920;-76
2022/04/26 11:11:51;;;;;;;;;;;;;;;;;;5092418;28;20334;-77
2022/04/26 11:14:27;;;;;;;;;;;;;;;;;;5090817;28;19923;-77
2022/04/26 11:16:54;;;;;;;;;;;;;;;;;;5092585;28;19943;-77
2022/04/26 11:19:27;;;;;;;;;;;;;;;;;;5091955;28;19924;-76
2022/04/26 11:21:53;;;;;;;;;;;;;;;;;;5093172;28;19969;-76
2022/04/26 11:29:51;;;;;;;;;;;;;;;;;;5094051;28;19920;-76
2022/04/26 11:32:30;;;;;;;;;;;;;;;;;;5093835;28;19916;-76
2022/04/26 11:34:56;;;;;;;;;;;;;;;;;;5096725;28;19955;-76
2022/04/26 11:37:22;;;;;;;;;;;;;;;;;;5094780;28;19946;-76
2022/04/26 11:39:47;;;;;;;;;;;;;;;;;;5094881;28;19916;-76
2022/04/26 11:42:12;;;;;;;;;;;;;;;;;;5094871;28;19915;-75
2022/04/26 11:44:56;;;;;;;;;;;;;;;;;;5094722;28;20007;-75
2022/04/26 11:47:35;;;;;;;;;;;;;;;;;;5095779;28;19916;-74
2022/04/26 11:50:07;;;;;;;;;;;;;;;;;;5095887;28;19916;-75
2022/04/26 11:52:33;;;;;;;;;;;;;;;;;;5096588;28;19922;-75
2022/04/26 11:54:58;;;;;;;;;;;;;;;;;;5095987;28;20335;-75
2022/04/26 11:57:24;;;;;;;;;;;;;;;;;;5095772;28;20347;-75
2022/04/26 11:59:50;;;;;;;;;;;;;;;;;;5096005;28;20286;-74
2022/04/26 12:02:15;;;;;;;;;;;;;;;;;;5096409;28;19916;-74
2022/04/26 12:04:41;;;;;;;;;;;;;;;;;;5094517;28;19923;-75
2022/04/26 12:07:07;;;;;;;;;;;;;;;;;;5090719;28;19917;-75
2022/04/26 12:09:33;;;;;;;;;;;;;;;;;;5076390;28;19917;-75
2022/04/26 12:11:58;;;;;;;;;;;;;;;;;;5095926;28;19923;-75
2022/04/26 12:14:24;;;;;;;;;;;;;;;;;;5095402;28;19922;-75
2022/04/26 12:16:54;;;;;;;;;;;;;;;;;;5094895;28;19927;-75
2022/04/26 12:19:32;;;;;;;;;;;;;;;;;;5095976;28;19920;-75
2022/04/26 12:22:00;;;;;;;;;;;;;;;;;;5095634;28;20392;-75
2022/04/26 12:24:27;;;;;;;;;;;;;;;;;;5092930;28;19920;-74
2022/04/26 12:26:56;;;;;;;;;;;;;;;;;;5092325;28;19920;-74
2022/04/26 12:29:23;;;;;;;;;;;;;;;;;;5094318;28;19916;-75
2022/04/26 12:31:48;;;;;;;;;;;;;;;;;;5095096;28;19916;-75
2022/04/26 12:34:21;;;;;;;;;;;;;;;;;;5094117;28;19958;-75
2022/04/26 12:36:51;;;;;;;;;;;;;;;;;;5094258;28;19974;-74
2022/04/26 12:39:17;;;;;;;;;;;;;;;;;;5089541;28;20382;-74
2022/04/26 12:41:46;;;;;;;;;;;;;;;;;;5075164;28;19985;-74
2022/04/26 12:44:11;;;;;;;;;;;;;;;;;;5073018;28;20384;-74
2022/04/26 12:52:39;;;;;;;;;;;;;;;;;;5089754;28;20171;-74
2022/04/26 12:55:05;;;;;;;;;;;;;;;;;;5094629;28;19916;-74
2022/04/26 12:57:30;;;;;;;;;;;;;;;;;;5094398;28;19991;-74
2022/04/26 12:59:55;;;;;;;;;;;;;;;;;;5094199;28;19922;-75
2022/04/26 13:02:21;;;;;;;;;;;;;;;;;;5091963;28;19959;-75
2022/04/26 13:04:46;;;;;;;;;;;;;;;;;;5092945;28;20006;-75
2022/04/26 13:07:14;;;;;;;;;;;;;;;;;;5094876;28;20372;-75
2022/04/26 13:09:39;;;;;;;;;;;;;;;;;;5095158;28;19927;-75
2022/04/26 13:12:05;;;;;;;;;;;;;;;;;;5094213;28;19916;-75
2022/04/26 13:14:31;;;;;;;;;;;;;;;;;;5094245;28;19923;-75
2022/04/26 13:16:56;;;;;;;;;;;;;;;;;;5092719;28;19916;-75
2022/04/26 13:19:21;;;;;;;;;;;;;;;;;;5092462;28;20549;-75
2022/04/26 13:21:47;;;;;;;;;;;;;;;;;;5092928;28;20382;-75
2022/04/26 13:24:14;;;;;;;;;;;;;;;;;;5092918;28;19955;-75
2022/04/26 13:26:39;;;;;;;;;;;;;;;;;;5092707;28;19924;-75
2022/04/26 13:29:05;;;;;;;;;;;;;;;;;;5092960;28;20006;-75
2022/04/26 13:31:31;;;;;;;;;;;;;;;;;;5094957;28;20408;-75
2022/04/26 13:33:56;;;;;;;;;;;;;;;;;;5094262;28;19916;-75
2022/04/26 13:36:22;;;;;;;;;;;;;;;;;;5094387;28;20459;-75
2022/04/26 13:38:47;;;;;;;;;;;;;;;;;;5094663;28;20381;-75
2022/04/26 13:41:13;;;;;;;;;;;;;;;;;;5094669;28;20315;-75
2022/04/26 13:43:41;;;;;;;;;;;;;;;;;;5094132;28;19916;-75
2022/04/26 13:46:07;;;;;;;;;;;;;;;;;;5094230;28;19973;-75
2022/04/26 13:48:32;;;;;;;;;;;;;;;;;;5094375;28;19916;-75
2022/04/26 13:50:57;;;;;;;;;;;;;;;;;;5094519;28;19916;-75
2022/04/26 13:53:22;;;;;;;;;;;;;;;;;;5094558;28;19947;-75
2022/04/26 13:55:48;;;;;;;;;;;;;;;;;;5094341;28;20453;-75
2022/04/26 13:58:13;;;;;;;;;;;;;;;;;;5094264;28;19927;-75
2022/04/26 14:00:38;;;;;;;;;;;;;;;;;;5094425;28;19968;-75
2022/04/26 14:03:04;;;;;;;;;;;;;;;;;;5094292;28;19916;-76
2022/04/26 14:05:29;;;;;;;;;;;;;;;;;;5093381;28;20409;-77
2022/04/26 14:07:55;;;;;;;;;;;;;;;;;;5094331;28;19919;-76
2022/04/26 14:10:20;;;;;;;;;;;;;;;;;;5094299;28;19916;-76
2022/04/26 14:12:45;;;;;;;;;;;;;;;;;;5094360;28;19923;-77
2022/04/26 14:23:27;;;;;;;;;;;;;;;;;;5092827;28;19916;-78
2022/04/26 14:25:52;;;;;;;;;;;;;;;;;;5092983;28;19920;-76
2022/04/26 14:28:18;;;;;;;;;;;;;;;;;;5092714;28;20266;-76
2022/04/26 14:30:43;;;;;;;;;;;;;;;;;;5093747;28;19916;-76
2022/04/26 14:33:08;;;;;;;;;;;;;;;;;;5094213;28;20016;-77
2022/04/26 14:35:34;;;;;;;;;;;;;;;;;;5080427;28;19958;-76
2022/04/26 14:38:00;;;;;;;;;;;;;;;;;;5073733;28;19920;-76
2022/04/26 14:40:25;;;;;;;;;;;;;;;;;;5072592;28;19983;-76
2022/04/26 14:42:51;;;;;;;;;;;;;;;;;;5072671;28;19917;-77
2022/04/26 14:45:16;;;;;;;;;;;;;;;;;;5073749;28;19920;-77
2022/04/26 14:47:41;;;;;;;;;;;;;;;;;;5073599;28;19916;-76
2022/04/26 14:50:08;;;;;;;;;;;;;;;;;;5074153;28;19922;-76
2022/04/26 14:52:33;;;;;;;;;;;;;;;;;;5073514;28;19916;-76
2022/04/26 14:55:01;;;;;;;;;;;;;;;;;;5073793;28;19923;-76
2022/04/26 14:57:26;;;;;;;;;;;;;;;;;;5074811;28;19966;-78
2022/04/26 14:59:51;;;;;;;;;;;;;;;;;;5078648;28;20010;-78
2022/04/26 15:02:17;;;;;;;;;;;;;;;;;;5097733;28;19923;-76
2022/04/26 15:04:44;;;;;;;;;;;;;;;;;;5096596;28;19955;-76
2022/04/26 15:07:09;;;;;;;;;;;;;;;;;;5097695;28;19916;-77
2022/04/26 15:09:43;;;;;;;;;;;;;;;;;;5097710;28;19939;-77
2022/04/26 15:17:41;;;;;;;;;;;;;;;;;;5097509;28;19916;-76
2022/04/26 15:20:07;;;;;;;;;;;;;;;;;;5097481;28;19923;-76
2022/04/26 15:22:33;;;;;;;;;;;;;;;;;;5097560;28;20313;-77
2022/04/26 15:24:58;;;;;;;;;;;;;;;;;;5112635;28;19916;-77
2022/04/26 15:27:24;;;;;;;;;;;;;;;;;;5117740;28;20002;-78
2022/04/26 15:29:49;;;;;;;;;;;;;;;;;;5117120;27;20428;-77
2022/04/26 15:32:14;;;;;;;;;;;;;;;;;;5117825;28;20306;-76
2022/04/26 15:34:40;;;;;;;;;;;;;;;;;;5117649;28;19919;-78
2022/04/26 15:37:05;;;;;;;;;;;;;;;;;;5117782;28;19955;-77
2022/04/26 15:39:31;;;;;;;;;;;;;;;;;;5117607;28;19991;-77
2022/04/26 15:41:57;;;;;;;;;;;;;;;;;;5117573;28;20288;-78
2022/04/26 15:44:22;;;;;;;;;;;;;;;;;;5117132;28;19919;-76
2022/04/26 15:46:50;;;;;;;;;;;;;;;;;;5117465;28;20250;-77
2022/04/26 15:49:19;;;;;;;;;;;;;;;;;;5100514;28;19916;-76
2022/04/26 15:51:44;;;;;;;;;;;;;;;;;;5081680;28;19929;-76
2022/04/26 15:54:10;;;;;;;;;;;;;;;;;;5079572;28;19927;-80
2022/04/26 15:56:36;;;;;;;;;;;;;;;;;;5082631;28;20010;-83
2022/04/26 15:59:01;;;;;;;;;;;;;;;;;;5083803;28;19970;-80
2022/04/26 16:01:27;;;;;;;;;;;;;;;;;;5076913;28;20007;-78
2022/04/26 16:03:52;;;;;;;;;;;;;;;;;;5077902;28;19924;-77
2022/04/26 16:06:19;;;;;;;;;;;;;;;;;;5080395;28;19920;-79
2022/04/26 16:08:44;;;;;;;;;;;;;;;;;;5079290;28;19916;-77
2022/04/26 16:22:07;;;;;;;;;;;;;;;;;;5083985;28;19948;-80
2022/04/26 16:24:38;;;;;;;;;;;;;;;;;;5094011;28;19916;-77
2022/04/26 16:27:07;;;;;;;;;;;;;;;;;;5084889;28;19950;-80
2022/04/26 16:29:32;;;;;;;;;;;;;;;;;;5097392;28;19916;-81
2022/04/26 16:31:58;;;;;;;;;;;;;;;;;;5085897;28;19919;-80
2022/04/26 16:34:23;;;;;;;;;;;;;;;;;;5104138;28;19916;-80
2022/04/26 16:36:48;;;;;;;;;;;;;;;;;;5105021;28;19916;-80
2022/04/26 16:39:14;;;;;;;;;;;;;;;;;;5105145;28;19998;-81
2022/04/26 16:41:39;;;;;;;;;;;;;;;;;;5104354;28;19941;-81
2022/04/26 16:44:04;;;;;;;;;;;;;;;;;;5104334;28;19922;-80
2022/04/26 16:46:32;;;;;;;;;;;;;;;;;;5103846;28;19924;-80
2022/04/26 16:48:58;;;;;;;;;;;;;;;;;;5103262;28;19916;-80
2022/04/26 16:51:25;;;;;;;;;;;;;;;;;;5109504;28;19908;-80
2022/04/26 16:53:50;;;;;;;;;;;;;;;;;;5113182;28;19919;-82
2022/04/26 16:56:15;;;;;;;;;;;;;;;;;;5109769;28;19916;-81
2022/04/26 16:58:41;;;;;;;;;;;;;;;;;;5109521;28;19927;-81
2022/04/26 17:01:07;;;;;;;;;;;;;;;;;;5116511;28;19923;-81
2022/04/26 17:03:32;;;;;;;;;;;;;;;;;;5111226;28;19916;-81
2022/04/26 17:05:58;;;;;;;;;;;;;;;;;;5110584;28;19927;-81
2022/04/26 17:08:23;;;;;;;;;;;;;;;;;;5109698;28;19922;-81
2022/04/26 17:10:48;;;;;;;;;;;;;;;;;;5109784;28;20011;-80
2022/04/26 17:13:15;;;;;;;;;;;;;;;;;;5110187;28;20277;-81
2022/04/26 17:15:40;;;;;;;;;;;;;;;;;;5110468;28;19970;-80
2022/04/26 17:18:06;;;;;;;;;;;;;;;;;;5107242;28;19916;-81
2022/04/26 17:20:34;;;;;;;;;;;;;;;;;;5104181;28;19916;-81
2022/04/26 17:23:04;;;;;;;;;;;;;;;;;;5102631;28;19916;-79
2022/04/26 17:25:29;;;;;;;;;;;;;;;;;;5099649;28;20378;-80
2022/04/26 17:27:55;;;;;;;;;;;;;;;;;;5099120;28;19978;-80
2022/04/26 17:30:20;;;;;;;;;;;;;;;;;;5098970;28;19923;-80
2022/04/26 17:32:46;;;;;;;;;;;;;;;;;;5099727;28;19916;-80
2022/04/26 17:35:11;;;;;;;;;;;;;;;;;;5111965;28;19922;-83
2022/04/26 17:37:38;;;;;;;;;;;;;;;;;;5120413;28;19963;-81
2022/04/26 17:40:04;;;;;;;;;;;;;;;;;;5120688;28;19916;-78
2022/04/26 17:42:34;;;;;;;;;;;;;;;;;;5107582;28;19983;-78
2022/04/26 17:45:00;;;;;;;;;;;;;;;;;;5108705;28;19947;-78
2022/04/26 17:47:25;;;;;;;;;;;;;;;;;;5108330;28;19923;-78
2022/04/26 17:49:50;;;;;;;;;;;;;;;;;;5103283;28;19916;-78
2022/04/26 17:52:16;;;;;;;;;;;;;;;;;;5105090;28;19938;-78
2022/04/26 17:57:25;;;;;;;;;;;;;;;;;;5105375;28;19924;-78
2022/04/26 17:59:51;;;;;;;;;;;;;;;;;;5106704;28;19938;-78
2022/04/26 18:02:17;;;;;;;;;;;;;;;;;;5104372;28;19916;-78
2022/04/26 18:04:42;;;;;;;;;;;;;;;;;;5105811;28;19939;-78
2022/04/26 18:07:09;;;;;;;;;;;;;;;;;;5097273;28;20362;-84
2022/04/26 18:09:34;;;;;;;;;;;;;;;;;;5101645;28;19920;-78
2022/04/26 18:12:00;;;;;;;;;;;;;;;;;;5122124;28;20342;-79
2022/04/26 18:14:26;;;;;;;;;;;;;;;;;;5105923;28;19951;-80
2022/04/26 18:16:52;;;;;;;;;;;;;;;;;;5106448;28;19998;-80
2022/04/26 18:19:17;;;;;;;;;;;;;;;;;;5103538;28;19916;-84
2022/04/26 18:21:42;;;;;;;;;;;;;;;;;;5102722;28;19916;-81
2022/04/26 18:24:08;;;;;;;;;;;;;;;;;;5082636;28;19916;-83
2022/04/26 18:26:34;;;;;;;;;;;;;;;;;;5117285;28;19928;-85
2022/04/26 18:29:00;;;;;;;;;;;;;;;;;;5106423;28;20136;-81
2022/04/26 18:31:31;;;;;;;;;;;;;;;;;;5086844;28;19916;-84
2022/04/26 18:33:57;;;;;;;;;;;;;;;;;;5063556;28;19916;-83
2022/04/26 18:36:23;;;;;;;;;;;;;;;;;;5080073;28;20263;-84
2022/04/26 18:38:49;;;;;;;;;;;;;;;;;;5078571;28;20382;-79
2022/04/26 18:41:16;;;;;;;;;;;;;;;;;;5075631;28;20286;-80
2022/04/26 18:43:41;;;;;;;;;;;;;;;;;;5077002;28;20408;-80
2022/04/26 18:46:07;;;;;;;;;;;;;;;;;;5077763;28;19921;-78
2022/04/26 18:48:37;;;;;;;;;;;;;;;;;;5076519;28;19920;-78
2022/04/26 18:51:02;;;;;;;;;;;;;;;;;;5075784;28;19916;-78
2022/04/26 18:53:28;;;;;;;;;;;;;;;;;;5077343;28;19924;-79
2022/04/26 18:55:53;;;;;;;;;;;;;;;;;;5076553;28;19916;-78
2022/04/26 18:58:19;;;;;;;;;;;;;;;;;;5092104;28;20374;-79
2022/04/26 19:00:45;;;;;;;;;;;;;;;;;;5096832;28;19916;-79
2022/04/26 19:03:11;;;;;;;;;;;;;;;;;;5097085;28;19916;-78
2022/04/26 19:05:36;;;;;;;;;;;;;;;;;;5097018;28;20270;-78
2022/04/26 19:08:02;;;;;;;;;;;;;;;;;;5096367;28;20370;-79
2022/04/26 19:13:12;;;;;;;;;;;;;;;;;;5093816;28;20007;-78
2022/04/26 19:15:38;;;;;;;;;;;;;;;;;;5094339;28;19955;-78
2022/04/26 19:18:03;;;;;;;;;;;;;;;;;;5089346;28;19916;-78
2022/04/26 19:20:34;;;;;;;;;;;;;;;;;;5074063;28;19916;-78
2022/04/26 19:23:00;;;;;;;;;;;;;;;;;;5075533;28;19951;-80
2022/04/26 19:25:25;;;;;;;;;;;;;;;;;;5076351;28;19925;-79
2022/04/26 19:27:51;;;;;;;;;;;;;;;;;;5088250;28;20019;-79
2022/04/26 19:30:16;;;;;;;;;;;;;;;;;;5087240;28;19923;-79
2022/04/26 19:32:42;;;;;;;;;;;;;;;;;;5084833;28;19920;-79
2022/04/26 19:35:07;;;;;;;;;;;;;;;;;;5075153;28;19917;-80
2022/04/26 19:37:33;;;;;;;;;;;;;;;;;;5074533;28;19924;-79
2022/04/26 19:39:58;;;;;;;;;;;;;;;;;;5083656;28;20327;-79
2022/04/26 19:42:24;;;;;;;;;;;;;;;;;;5092135;28;20341;-79
2022/04/26 19:44:49;;;;;;;;;;;;;;;;;;5084830;28;19921;-80
2022/04/26 19:47:15;;;;;;;;;;;;;;;;;;5086652;28;19924;-81
2022/04/26 19:49:40;;;;;;;;;;;;;;;;;;5080101;28;19970;-79
2022/04/26 19:52:05;;;;;;;;;;;;;;;;;;5101700;28;19980;-81
2022/04/26 19:54:31;;;;;;;;;;;;;;;;;;5100752;28;19916;-81
2022/04/26 19:56:57;;;;;;;;;;;;;;;;;;5085170;28;20003;-80
2022/04/26 19:59:22;;;;;;;;;;;;;;;;;;5100281;28;20274;-81
2022/04/26 20:01:47;;;;;;;;;;;;;;;;;;5101561;28;19916;-81
2022/04/26 20:04:12;;;;;;;;;;;;;;;;;;5102296;28;19922;-82
2022/04/26 20:06:38;;;;;;;;;;;;;;;;;;5095371;28;19920;-82
2022/04/26 20:09:03;;;;;;;;;;;;;;;;;;5079858;28;20267;-81
2022/04/26 20:11:29;;;;;;;;;;;;;;;;;;5084945;28;20369;-80
2022/04/26 20:13:55;;;;;;;;;;;;;;;;;;5097921;28;19920;-80
2022/04/26 20:16:22;;;;;;;;;;;;;;;;;;5099528;28;19916;-80
2022/04/26 20:18:48;;;;;;;;;;;;;;;;;;5097770;28;20351;-79
2022/04/26 20:21:13;;;;;;;;;;;;;;;;;;5098885;28;20010;-81
2022/04/26 20:23:39;;;;;;;;;;;;;;;;;;5093766;28;19916;-81
2022/04/26 20:31:31;;;;;;;;;;;;;;;;;;5092895;28;19923;-81
2022/04/26 20:33:58;;;;;;;;;;;;;;;;;;5080876;28;19912;-80
2022/04/26 20:36:23;;;;;;;;;;;;;;;;;;5089393;28;19939;-80
2022/04/26 20:38:48;;;;;;;;;;;;;;;;;;5098435;28;19923;-80
2022/04/26 20:41:14;;;;;;;;;;;;;;;;;;5097384;28;19916;-80
2022/04/26 20:43:40;;;;;;;;;;;;;;;;;;5099363;28;20027;-79
2022/04/26 20:46:06;;;;;;;;;;;;;;;;;;5098934;28;19978;-79
2022/04/26 20:48:32;;;;;;;;;;;;;;;;;;5098257;28;19916;-80
2022/04/26 20:50:58;;;;;;;;;;;;;;;;;;5098543;28;19916;-80
2022/04/26 20:53:23;;;;;;;;;;;;;;;;;;5098670;28;19923;-80
2022/04/26 20:55:48;;;;;;;;;;;;;;;;;;5095150;28;19916;-79
2022/04/26 20:58:15;;;;;;;;;;;;;;;;;;5097923;28;19920;-80
2022/04/26 21:00:41;;;;;;;;;;;;;;;;;;5097498;28;19920;-81
2022/04/26 21:03:06;;;;;;;;;;;;;;;;;;5097517;28;19916;-80
2022/04/26 21:05:32;;;;;;;;;;;;;;;;;;5109520;28;19927;-80
2022/04/26 21:07:57;;;;;;;;;;;;;;;;;;5100669;28;19916;-80
2022/04/26 21:10:23;;;;;;;;;;;;;;;;;;5119221;28;20026;-80
2022/04/26 21:15:32;;;;;;;;;;;;;;;;;;5096497;28;19916;-80
2022/04/26 21:17:58;;;;;;;;;;;;;;;;;;5096197;28;19966;-81
2022/04/26 21:20:24;;;;;;;;;;;;;;;;;;5095242;28;19999;-80